sensor_id;sensor_type;location;lat;lon;timestamp;pressure;altitude;pressure_sealevel;temperature;humidity
10474;BME280;5284;50.446;7.904;2023-09-07T00:01:18;98885.88;;;16.39;100.00
10474;BME280;5284;50.446;7.904;2023-09-07T00:06:23;98887.63;;;16.30;100.00
10474;BME280;5284;50.446;7.904;2023-09-07T00:11:27;98887.72;;;16.21;100.00
10474;BME280;5284;50.446;7.904;2023-09-07T00:16:31;98884.97;;;16.13;100.00
10474;BME280;5284;50.446;7.904;2023-09-07T00:21:37;98880.53;;;16.04;100.00
10474;BME280;5284;50.446;7.904;2023-09-07T00:26:40;98880.75;;;15.93;100.00
10474;BME280;5284;50.446;7.904;2023-09-07T00:31:44;98883.69;;;15.82;100.00
10474;BME280;5284;50.446;7.904;2023-09-07T00:36:48;98882.47;;;15.76;100.00
10474;BME280;5284;50.446;7.904;2023-09-07T00:41:52;98885.94;;;15.69;100.00
10474;BME280;5284;50.446;7.904;2023-09-07T00:46:56;98877.94;;;15.59;100.00
10474;BME280;5284;50.446;7.904;2023-09-07T00:52:01;98876.47;;;15.47;100.00
10474;BME280;5284;50.446;7.904;2023-09-07T00:57:05;98869.63;;;15.35;100.00
10474;BME280;5284;50.446;7.904;2023-09-07T01:02:08;98869.53;;;15.27;100.00
10474;BME280;5284;50.446;7.904;2023-09-07T01:07:17;98862.38;;;15.19;100.00
10474;BME280;5284;50.446;7.904;2023-09-07T01:12:22;98860.56;;;15.10;100.00
10474;BME280;5284;50.446;7.904;2023-09-07T01:17:28;98856.66;;;15.04;100.00
10474;BME280;5284;50.446;7.904;2023-09-07T01:22:33;98852.88;;;14.97;100.00
10474;BME280;5284;50.446;7.904;2023-09-07T01:27:37;98842.59;;;14.93;100.00
10474;BME280;5284;50.446;7.904;2023-09-07T01:32:42;98849.69;;;14.84;100.00
10474;BME280;5284;50.446;7.904;2023-09-07T01:37:46;98845.22;;;14.75;100.00
10474;BME280;5284;50.446;7.904;2023-09-07T01:42:50;98837.06;;;14.67;100.00
10474;BME280;5284;50.446;7.904;2023-09-07T01:47:53;98841.06;;;14.63;100.00
10474;BME280;5284;50.446;7.904;2023-09-07T01:52:57;98834.84;;;14.53;100.00
10474;BME280;5284;50.446;7.904;2023-09-07T01:58:00;98838.53;;;14.52;100.00
10474;BME280;5284;50.446;7.904;2023-09-07T02:03:03;98840.81;;;14.47;100.00
10474;BME280;5284;50.446;7.904;2023-09-07T02:08:08;98839.72;;;14.40;100.00
10474;BME280;5284;50.446;7.904;2023-09-07T02:13:11;98837.19;;;14.39;100.00
10474;BME280;5284;50.446;7.904;2023-09-07T02:18:14;98832.97;;;14.36;100.00
10474;BME280;5284;50.446;7.904;2023-09-07T02:23:19;98823.22;;;14.35;100.00
10474;BME280;5284;50.446;7.904;2023-09-07T02:28:23;98826.03;;;14.34;100.00
10474;BME280;5284;50.446;7.904;2023-09-07T02:33:28;98826.91;;;14.34;100.00
10474;BME280;5284;50.446;7.904;2023-09-07T02:38:32;98829.41;;;14.36;100.00
10474;BME280;5284;50.446;7.904;2023-09-07T02:43:36;98841.31;;;14.33;100.00
10474;BME280;5284;50.446;7.904;2023-09-07T02:48:39;98837.34;;;14.37;100.00
10474;BME280;5284;50.446;7.904;2023-09-07T02:53:43;98831.00;;;14.29;100.00
10474;BME280;5284;50.446;7.904;2023-09-07T02:58:46;98834.72;;;14.18;100.00
10474;BME280;5284;50.446;7.904;2023-09-07T03:03:50;98835.13;;;14.14;100.00
10474;BME280;5284;50.446;7.904;2023-09-07T03:08:56;98832.56;;;14.12;100.00
10474;BME280;5284;50.446;7.904;2023-09-07T03:13:59;98833.00;;;14.08;100.00
10474;BME280;5284;50.446;7.904;2023-09-07T03:19:04;98830.19;;;14.09;100.00
10474;BME280;5284;50.446;7.904;2023-09-07T03:24:09;98824.81;;;14.09;100.00
10474;BME280;5284;50.446;7.904;2023-09-07T03:29:12;98830.59;;;14.05;100.00
10474;BME280;5284;50.446;7.904;2023-09-07T03:34:17;98831.06;;;14.00;100.00
10474;BME280;5284;50.446;7.904;2023-09-07T03:39:22;98837.72;;;13.96;100.00
10474;BME280;5284;50.446;7.904;2023-09-07T03:44:27;98826.97;;;13.96;100.00
10474;BME280;5284;50.446;7.904;2023-09-07T03:49:30;98841.94;;;13.89;100.00
10474;BME280;5284;50.446;7.904;2023-09-07T03:54:34;98830.78;;;13.84;100.00
10474;BME280;5284;50.446;7.904;2023-09-07T03:59:37;98834.19;;;13.77;100.00
10474;BME280;5284;50.446;7.904;2023-09-07T04:04:42;98842.66;;;13.73;100.00
10474;BME280;5284;50.446;7.904;2023-09-07T04:09:46;98837.59;;;13.70;100.00
10474;BME280;5284;50.446;7.904;2023-09-07T04:14:49;98839.16;;;13.63;100.00
10474;BME280;5284;50.446;7.904;2023-09-07T04:19:52;98836.63;;;13.61;100.00
10474;BME280;5284;50.446;7.904;2023-09-07T04:24:56;98829.97;;;13.56;100.00
10474;BME280;5284;50.446;7.904;2023-09-07T04:30:00;98835.34;;;13.56;100.00
10474;BME280;5284;50.446;7.904;2023-09-07T04:35:06;98840.16;;;13.52;100.00
10474;BME280;5284;50.446;7.904;2023-09-07T04:40:11;98835.78;;;13.51;100.00
10474;BME280;5284;50.446;7.904;2023-09-07T04:45:16;98838.28;;;13.53;100.00
10474;BME280;5284;50.446;7.904;2023-09-07T04:50:19;98840.41;;;13.59;100.00
10474;BME280;5284;50.446;7.904;2023-09-07T04:55:24;98837.59;;;13.60;100.00
10474;BME280;5284;50.446;7.904;2023-09-07T05:00:27;98837.88;;;13.67;100.00
10474;BME280;5284;50.446;7.904;2023-09-07T05:05:31;98840.53;;;13.76;100.00
10474;BME280;5284;50.446;7.904;2023-09-07T05:10:38;98850.13;;;13.78;100.00
10474;BME280;5284;50.446;7.904;2023-09-07T05:15:47;98853.66;;;13.88;100.00
10474;BME280;5284;50.446;7.904;2023-09-07T05:20:51;98848.16;;;13.90;100.00
10474;BME280;5284;50.446;7.904;2023-09-07T05:25:56;98854.78;;;13.95;100.00
10474;BME280;5284;50.446;7.904;2023-09-07T05:31:01;98855.31;;;14.08;100.00
10474;BME280;5284;50.446;7.904;2023-09-07T05:36:05;98865.06;;;14.19;100.00
10474;BME280;5284;50.446;7.904;2023-09-07T05:41:10;98860.91;;;14.34;100.00
10474;BME280;5284;50.446;7.904;2023-09-07T05:46:13;98860.72;;;14.54;100.00
10474;BME280;5284;50.446;7.904;2023-09-07T05:51:16;98870.00;;;14.69;100.00
10474;BME280;5284;50.446;7.904;2023-09-07T05:56:23;98868.22;;;14.78;100.00
10474;BME280;5284;50.446;7.904;2023-09-07T06:01:28;98877.06;;;14.97;100.00
10474;BME280;5284;50.446;7.904;2023-09-07T06:06:31;98870.13;;;15.22;100.00
10474;BME280;5284;50.446;7.904;2023-09-07T06:11:37;98864.81;;;15.56;100.00
10474;BME280;5284;50.446;7.904;2023-09-07T06:16:43;98873.94;;;15.81;100.00
10474;BME280;5284;50.446;7.904;2023-09-07T06:21:46;98885.28;;;16.10;100.00
10474;BME280;5284;50.446;7.904;2023-09-07T06:26:51;98888.56;;;16.39;100.00
10474;BME280;5284;50.446;7.904;2023-09-07T06:31:54;98888.44;;;16.74;100.00
10474;BME280;5284;50.446;7.904;2023-09-07T06:36:57;98885.53;;;17.00;100.00
10474;BME280;5284;50.446;7.904;2023-09-07T06:42:04;98893.28;;;17.37;100.00
10474;BME280;5284;50.446;7.904;2023-09-07T06:47:15;98892.00;;;17.65;100.00
10474;BME280;5284;50.446;7.904;2023-09-07T06:52:18;98891.38;;;17.87;100.00
10474;BME280;5284;50.446;7.904;2023-09-07T06:57:23;98892.22;;;18.19;100.00
10474;BME280;5284;50.446;7.904;2023-09-07T07:02:27;98891.22;;;18.44;100.00
10474;BME280;5284;50.446;7.904;2023-09-07T07:07:30;98892.84;;;18.69;100.00
10474;BME280;5284;50.446;7.904;2023-09-07T07:12:35;98902.69;;;19.16;100.00
10474;BME280;5284;50.446;7.904;2023-09-07T07:17:40;98903.06;;;19.52;100.00
10474;BME280;5284;50.446;7.904;2023-09-07T07:22:43;98910.69;;;19.79;100.00
10474;BME280;5284;50.446;7.904;2023-09-07T07:27:50;98915.16;;;20.16;100.00
10474;BME280;5284;50.446;7.904;2023-09-07T07:32:53;98914.91;;;20.48;100.00
10474;BME280;5284;50.446;7.904;2023-09-07T07:37:56;98909.16;;;20.80;100.00
10474;BME280;5284;50.446;7.904;2023-09-07T07:43:01;98912.84;;;21.02;98.66
10474;BME280;5284;50.446;7.904;2023-09-07T07:48:06;98910.50;;;21.13;98.34
10474;BME280;5284;50.446;7.904;2023-09-07T07:53:12;98913.88;;;21.15;97.83
10474;BME280;5284;50.446;7.904;2023-09-07T07:58:18;98905.47;;;21.60;92.91
10474;BME280;5284;50.446;7.904;2023-09-07T08:03:21;98904.00;;;21.93;91.96
10474;BME280;5284;50.446;7.904;2023-09-07T08:08:26;98907.25;;;22.24;88.60
10474;BME280;5284;50.446;7.904;2023-09-07T08:13:32;98896.19;;;22.25;90.57
10474;BME280;5284;50.446;7.904;2023-09-07T08:18:37;98909.13;;;22.65;89.93
10474;BME280;5284;50.446;7.904;2023-09-07T08:23:42;98901.34;;;22.90;86.60
10474;BME280;5284;50.446;7.904;2023-09-07T08:28:48;98901.69;;;23.41;85.77
10474;BME280;5284;50.446;7.904;2023-09-07T08:33:51;98894.44;;;23.61;84.44
10474;BME280;5284;50.446;7.904;2023-09-07T08:38:53;98900.84;;;23.88;82.22
10474;BME280;5284;50.446;7.904;2023-09-07T08:43:59;98903.38;;;23.89;82.84
10474;BME280;5284;50.446;7.904;2023-09-07T08:49:03;98906.44;;;23.80;82.25
10474;BME280;5284;50.446;7.904;2023-09-07T08:54:07;98900.50;;;24.17;79.09
10474;BME280;5284;50.446;7.904;2023-09-07T08:59:12;98896.09;;;24.48;79.00
10474;BME280;5284;50.446;7.904;2023-09-07T09:04:16;98889.41;;;24.38;78.41
10474;BME280;5284;50.446;7.904;2023-09-07T09:09:23;98892.16;;;24.77;77.67
10474;BME280;5284;50.446;7.904;2023-09-07T09:14:30;98905.97;;;24.30;76.64
10474;BME280;5284;50.446;7.904;2023-09-07T09:19:33;98901.38;;;24.82;75.29
10474;BME280;5284;50.446;7.904;2023-09-07T09:24:38;98904.56;;;24.73;73.13
10474;BME280;5284;50.446;7.904;2023-09-07T09:29:43;98895.00;;;25.33;74.75
10474;BME280;5284;50.446;7.904;2023-09-07T09:34:48;98892.44;;;25.45;76.20
10474;BME280;5284;50.446;7.904;2023-09-07T09:39:52;98878.13;;;25.56;74.35
10474;BME280;5284;50.446;7.904;2023-09-07T09:44:58;98876.75;;;25.27;75.15
10474;BME280;5284;50.446;7.904;2023-09-07T09:50:02;98873.00;;;25.72;72.13
10474;BME280;5284;50.446;7.904;2023-09-07T09:55:09;98861.31;;;25.59;75.08
10474;BME280;5284;50.446;7.904;2023-09-07T10:00:16;98860.50;;;25.52;72.77
10474;BME280;5284;50.446;7.904;2023-09-07T10:05:29;98856.53;;;25.92;71.63
10474;BME280;5284;50.446;7.904;2023-09-07T10:10:34;98851.72;;;26.18;72.24
10474;BME280;5284;50.446;7.904;2023-09-07T10:15:40;98846.53;;;26.35;70.77
10474;BME280;5284;50.446;7.904;2023-09-07T10:20:49;98851.56;;;26.86;69.82
10474;BME280;5284;50.446;7.904;2023-09-07T10:25:53;98854.84;;;26.95;67.93
10474;BME280;5284;50.446;7.904;2023-09-07T10:31:00;98851.19;;;27.25;70.21
10474;BME280;5284;50.446;7.904;2023-09-07T10:36:05;98844.53;;;27.33;67.38
10474;BME280;5284;50.446;7.904;2023-09-07T10:41:09;98848.59;;;27.30;67.19
10474;BME280;5284;50.446;7.904;2023-09-07T10:46:13;98843.19;;;27.42;66.02
10474;BME280;5284;50.446;7.904;2023-09-07T10:51:16;98833.66;;;27.62;61.93
10474;BME280;5284;50.446;7.904;2023-09-07T10:56:19;98834.22;;;28.12;62.08
10474;BME280;5284;50.446;7.904;2023-09-07T11:01:28;98839.38;;;28.20;62.70
10474;BME280;5284;50.446;7.904;2023-09-07T11:06:32;98828.31;;;27.97;61.96
10474;BME280;5284;50.446;7.904;2023-09-07T11:11:36;98822.53;;;28.80;59.69
10474;BME280;5284;50.446;7.904;2023-09-07T11:16:40;98820.97;;;28.72;59.94
10474;BME280;5284;50.446;7.904;2023-09-07T11:21:44;98820.03;;;28.67;58.47
10474;BME280;5284;50.446;7.904;2023-09-07T11:26:49;98804.13;;;29.66;56.41
10474;BME280;5284;50.446;7.904;2023-09-07T11:31:54;98800.47;;;29.37;57.20
10474;BME280;5284;50.446;7.904;2023-09-07T11:36:57;98797.75;;;29.26;55.40
10474;BME280;5284;50.446;7.904;2023-09-07T11:41:59;98801.19;;;29.44;56.35
10474;BME280;5284;50.446;7.904;2023-09-07T11:47:05;98802.72;;;30.35;54.58
10474;BME280;5284;50.446;7.904;2023-09-07T11:52:09;98797.22;;;30.35;53.24
10474;BME280;5284;50.446;7.904;2023-09-07T11:57:13;98791.13;;;30.83;52.03
10474;BME280;5284;50.446;7.904;2023-09-07T12:02:19;98795.94;;;31.73;50.25
10474;BME280;5284;50.446;7.904;2023-09-07T12:07:23;98789.34;;;31.74;48.74
10474;BME280;5284;50.446;7.904;2023-09-07T12:12:26;98787.47;;;32.32;48.61
10474;BME280;5284;50.446;7.904;2023-09-07T12:17:32;98787.22;;;32.34;46.48
10474;BME280;5284;50.446;7.904;2023-09-07T12:22:36;98780.66;;;33.84;45.52
10474;BME280;5284;50.446;7.904;2023-09-07T12:27:40;98775.63;;;33.15;44.38
10474;BME280;5284;50.446;7.904;2023-09-07T12:32:56;98768.66;;;33.63;44.38
10474;BME280;5284;50.446;7.904;2023-09-07T12:37:59;98773.72;;;33.71;45.03
10474;BME280;5284;50.446;7.904;2023-09-07T12:43:02;98777.38;;;35.21;41.93
10474;BME280;5284;50.446;7.904;2023-09-07T12:48:07;98775.41;;;33.82;41.50
10474;BME280;5284;50.446;7.904;2023-09-07T12:53:12;98763.56;;;34.17;41.30
10474;BME280;5284;50.446;7.904;2023-09-07T12:58:15;98763.63;;;33.35;40.82
10474;BME280;5284;50.446;7.904;2023-09-07T13:03:20;98767.19;;;34.17;40.40
10474;BME280;5284;50.446;7.904;2023-09-07T13:08:24;98761.84;;;35.20;39.24
10474;BME280;5284;50.446;7.904;2023-09-07T13:13:30;98764.78;;;35.49;39.12
10474;BME280;5284;50.446;7.904;2023-09-07T13:18:35;98759.69;;;35.71;36.97
10474;BME280;5284;50.446;7.904;2023-09-07T13:23:38;98749.09;;;35.24;36.70
10474;BME280;5284;50.446;7.904;2023-09-07T13:28:43;98744.41;;;33.80;38.71
10474;BME280;5284;50.446;7.904;2023-09-07T13:33:49;98741.19;;;33.42;38.77
10474;BME280;5284;50.446;7.904;2023-09-07T13:38:52;98737.81;;;32.11;39.90
10474;BME280;5284;50.446;7.904;2023-09-07T13:43:58;98728.25;;;30.80;41.18
10474;BME280;5284;50.446;7.904;2023-09-07T13:49:03;98720.03;;;31.06;40.95
10474;BME280;5284;50.446;7.904;2023-09-07T13:54:06;98725.69;;;30.40;42.92
10474;BME280;5284;50.446;7.904;2023-09-07T13:59:10;98716.59;;;30.07;42.58
10474;BME280;5284;50.446;7.904;2023-09-07T14:04:14;98712.75;;;30.24;44.39
10474;BME280;5284;50.446;7.904;2023-09-07T14:09:17;98708.63;;;29.94;46.09
10474;BME280;5284;50.446;7.904;2023-09-07T14:14:21;98717.44;;;29.63;46.56
10474;BME280;5284;50.446;7.904;2023-09-07T14:19:27;98700.84;;;29.19;45.31
10474;BME280;5284;50.446;7.904;2023-09-07T14:24:33;98711.59;;;29.32;46.67
10474;BME280;5284;50.446;7.904;2023-09-07T14:29:35;98710.91;;;29.41;46.39
10474;BME280;5284;50.446;7.904;2023-09-07T14:34:40;98717.19;;;29.37;47.27
10474;BME280;5284;50.446;7.904;2023-09-07T14:39:43;98699.00;;;29.08;47.89
10474;BME280;5284;50.446;7.904;2023-09-07T14:44:49;98703.53;;;29.70;47.85
10474;BME280;5284;50.446;7.904;2023-09-07T14:49:53;98700.69;;;29.37;48.51
10474;BME280;5284;50.446;7.904;2023-09-07T14:54:57;98709.66;;;29.32;47.95
10474;BME280;5284;50.446;7.904;2023-09-07T15:00:03;98701.88;;;29.01;48.53
10474;BME280;5284;50.446;7.904;2023-09-07T15:05:08;98703.59;;;29.19;48.22
10474;BME280;5284;50.446;7.904;2023-09-07T15:10:12;98698.50;;;29.11;47.86
10474;BME280;5284;50.446;7.904;2023-09-07T15:15:16;98698.59;;;29.16;48.01
10474;BME280;5284;50.446;7.904;2023-09-07T15:20:20;98692.63;;;29.19;48.54
10474;BME280;5284;50.446;7.904;2023-09-07T15:25:23;98691.09;;;29.11;47.82
10474;BME280;5284;50.446;7.904;2023-09-07T15:30:26;98688.59;;;29.10;47.70
10474;BME280;5284;50.446;7.904;2023-09-07T15:35:31;98692.50;;;29.14;47.02
10474;BME280;5284;50.446;7.904;2023-09-07T15:40:34;98680.28;;;28.82;48.28
10474;BME280;5284;50.446;7.904;2023-09-07T15:45:40;98683.38;;;28.97;46.96
10474;BME280;5284;50.446;7.904;2023-09-07T15:50:44;98677.91;;;28.74;47.23
10474;BME280;5284;50.446;7.904;2023-09-07T15:55:47;98677.47;;;28.54;47.53
10474;BME280;5284;50.446;7.904;2023-09-07T16:00:50;98682.63;;;28.50;48.09
10474;BME280;5284;50.446;7.904;2023-09-07T16:05:55;98682.63;;;28.39;46.80
10474;BME280;5284;50.446;7.904;2023-09-07T16:10:58;98677.59;;;28.47;47.78
10474;BME280;5284;50.446;7.904;2023-09-07T16:16:03;98678.78;;;28.51;48.71
10474;BME280;5284;50.446;7.904;2023-09-07T16:21:07;98678.56;;;28.41;47.03
10474;BME280;5284;50.446;7.904;2023-09-07T16:26:13;98679.63;;;28.40;47.29
10474;BME280;5284;50.446;7.904;2023-09-07T16:31:17;98686.94;;;29.37;46.49
10474;BME280;5284;50.446;7.904;2023-09-07T16:36:22;98682.53;;;32.79;40.65
10474;BME280;5284;50.446;7.904;2023-09-07T16:41:26;98686.53;;;34.04;37.90
10474;BME280;5284;50.446;7.904;2023-09-07T16:46:30;98676.69;;;30.59;43.37
10474;BME280;5284;50.446;7.904;2023-09-07T16:51:34;98681.34;;;29.04;45.04
10474;BME280;5284;50.446;7.904;2023-09-07T16:56:37;98686.50;;;28.20;47.67
10474;BME280;5284;50.446;7.904;2023-09-07T17:01:40;98682.25;;;27.60;49.28
10474;BME280;5284;50.446;7.904;2023-09-07T17:06:45;98682.31;;;27.13;50.89
10474;BME280;5284;50.446;7.904;2023-09-07T17:11:59;98678.63;;;26.71;51.89
10474;BME280;5284;50.446;7.904;2023-09-07T17:17:04;98678.13;;;26.39;53.10
10474;BME280;5284;50.446;7.904;2023-09-07T17:22:08;98675.91;;;26.11;54.05
10474;BME280;5284;50.446;7.904;2023-09-07T17:27:11;98683.06;;;25.88;55.75
10474;BME280;5284;50.446;7.904;2023-09-07T17:32:14;98683.81;;;25.70;57.85
10474;BME280;5284;50.446;7.904;2023-09-07T17:37:20;98681.03;;;25.46;58.66
10474;BME280;5284;50.446;7.904;2023-09-07T17:42:23;98687.03;;;25.30;59.67
10474;BME280;5284;50.446;7.904;2023-09-07T17:47:26;98687.56;;;25.01;60.73
10474;BME280;5284;50.446;7.904;2023-09-07T17:52:32;98682.22;;;24.82;61.90
10474;BME280;5284;50.446;7.904;2023-09-07T17:57:36;98686.09;;;24.61;62.55
10474;BME280;5284;50.446;7.904;2023-09-07T18:02:39;98692.38;;;24.42;64.18
10474;BME280;5284;50.446;7.904;2023-09-07T18:07:44;98693.72;;;24.20;67.47
10474;BME280;5284;50.446;7.904;2023-09-07T18:12:47;98701.06;;;24.00;66.86
10474;BME280;5284;50.446;7.904;2023-09-07T18:17:50;98703.81;;;23.81;68.83
10474;BME280;5284;50.446;7.904;2023-09-07T18:22:55;98703.75;;;23.61;70.10
10474;BME280;5284;50.446;7.904;2023-09-07T18:27:58;98708.56;;;23.46;70.03
10474;BME280;5284;50.446;7.904;2023-09-07T18:33:02;98713.34;;;23.32;70.76
10474;BME280;5284;50.446;7.904;2023-09-07T18:38:07;98722.13;;;23.21;69.30
10474;BME280;5284;50.446;7.904;2023-09-07T18:43:10;98714.69;;;23.02;71.12
10474;BME280;5284;50.446;7.904;2023-09-07T18:48:14;98723.66;;;22.83;71.13
10474;BME280;5284;50.446;7.904;2023-09-07T18:53:19;98732.53;;;22.64;72.21
10474;BME280;5284;50.446;7.904;2023-09-07T18:58:22;98726.75;;;22.39;73.80
10474;BME280;5284;50.446;7.904;2023-09-07T19:03:25;98724.28;;;22.17;73.98
10474;BME280;5284;50.446;7.904;2023-09-07T19:08:30;98721.44;;;21.97;75.35
10474;BME280;5284;50.446;7.904;2023-09-07T19:13:34;98728.91;;;21.68;78.33
10474;BME280;5284;50.446;7.904;2023-09-07T19:18:37;98721.31;;;21.43;79.76
10474;BME280;5284;50.446;7.904;2023-09-07T19:23:42;98716.34;;;21.25;79.56
10474;BME280;5284;50.446;7.904;2023-09-07T19:28:45;98723.69;;;21.10;80.96
10474;BME280;5284;50.446;7.904;2023-09-07T19:33:48;98719.34;;;20.95;81.75
10474;BME280;5284;50.446;7.904;2023-09-07T19:38:54;98722.06;;;20.80;80.62
10474;BME280;5284;50.446;7.904;2023-09-07T19:43:58;98719.16;;;20.67;81.70
10474;BME280;5284;50.446;7.904;2023-09-07T19:49:02;98726.09;;;20.55;84.26
10474;BME280;5284;50.446;7.904;2023-09-07T19:54:07;98714.41;;;20.40;86.83
10474;BME280;5284;50.446;7.904;2023-09-07T19:59:10;98716.13;;;20.27;87.73
10474;BME280;5284;50.446;7.904;2023-09-07T20:04:14;98720.31;;;20.15;88.50
10474;BME280;5284;50.446;7.904;2023-09-07T20:09:20;98719.25;;;20.02;88.81
10474;BME280;5284;50.446;7.904;2023-09-07T20:14:24;98723.25;;;19.91;87.73
10474;BME280;5284;50.446;7.904;2023-09-07T20:19:40;98717.44;;;19.80;89.37
10474;BME280;5284;50.446;7.904;2023-09-07T20:24:46;98724.78;;;19.71;89.20
10474;BME280;5284;50.446;7.904;2023-09-07T20:29:50;98727.94;;;19.60;90.13
10474;BME280;5284;50.446;7.904;2023-09-07T20:34:53;98722.78;;;19.51;91.51
10474;BME280;5284;50.446;7.904;2023-09-07T20:39:58;98717.81;;;19.40;90.77
10474;BME280;5284;50.446;7.904;2023-09-07T20:45:01;98725.66;;;19.27;97.24
10474;BME280;5284;50.446;7.904;2023-09-07T20:50:06;98725.75;;;19.11;100.00
10474;BME280;5284;50.446;7.904;2023-09-07T20:55:12;98713.34;;;18.94;100.00
10474;BME280;5284;50.446;7.904;2023-09-07T21:00:16;98716.47;;;18.83;100.00
10474;BME280;5284;50.446;7.904;2023-09-07T21:05:20;98717.38;;;18.67;100.00
10474;BME280;5284;50.446;7.904;2023-09-07T21:10:24;98723.00;;;18.58;100.00
10474;BME280;5284;50.446;7.904;2023-09-07T21:15:28;98726.81;;;18.41;100.00
10474;BME280;5284;50.446;7.904;2023-09-07T21:20:31;98734.78;;;18.27;100.00
10474;BME280;5284;50.446;7.904;2023-09-07T21:25:38;98736.78;;;18.17;100.00
10474;BME280;5284;50.446;7.904;2023-09-07T21:30:42;98739.34;;;18.02;100.00
10474;BME280;5284;50.446;7.904;2023-09-07T21:35:45;98732.63;;;17.90;100.00
10474;BME280;5284;50.446;7.904;2023-09-07T21:40:51;98732.66;;;17.82;100.00
10474;BME280;5284;50.446;7.904;2023-09-07T21:45:54;98741.28;;;17.70;100.00
10474;BME280;5284;50.446;7.904;2023-09-07T21:50:58;98741.28;;;17.62;100.00
10474;BME280;5284;50.446;7.904;2023-09-07T21:56:03;98747.00;;;17.51;100.00
10474;BME280;5284;50.446;7.904;2023-09-07T22:01:07;98745.50;;;17.40;100.00
10474;BME280;5284;50.446;7.904;2023-09-07T22:06:10;98742.06;;;17.30;100.00
10474;BME280;5284;50.446;7.904;2023-09-07T22:11:14;98742.75;;;17.24;100.00
10474;BME280;5284;50.446;7.904;2023-09-07T22:16:18;98742.06;;;17.14;100.00
10474;BME280;5284;50.446;7.904;2023-09-07T22:21:24;98736.66;;;17.06;100.00
10474;BME280;5284;50.446;7.904;2023-09-07T22:26:28;98740.34;;;16.97;100.00
10474;BME280;5284;50.446;7.904;2023-09-07T22:31:32;98738.63;;;16.88;100.00
10474;BME280;5284;50.446;7.904;2023-09-07T22:36:36;98723.47;;;16.80;100.00
10474;BME280;5284;50.446;7.904;2023-09-07T22:41:41;98727.31;;;16.69;100.00
10474;BME280;5284;50.446;7.904;2023-09-07T22:46:44;98723.59;;;16.62;100.00
10474;BME280;5284;50.446;7.904;2023-09-07T22:51:47;98720.88;;;16.54;100.00
10474;BME280;5284;50.446;7.904;2023-09-07T22:56:52;98711.91;;;16.46;100.00
10474;BME280;5284;50.446;7.904;2023-09-07T23:01:58;98710.22;;;16.37;100.00
10474;BME280;5284;50.446;7.904;2023-09-07T23:07:01;98707.09;;;16.32;100.00
10474;BME280;5284;50.446;7.904;2023-09-07T23:12:07;98702.69;;;16.23;100.00
10474;BME280;5284;50.446;7.904;2023-09-07T23:17:10;98707.19;;;16.14;100.00
10474;BME280;5284;50.446;7.904;2023-09-07T23:22:13;98713.22;;;16.08;100.00
10474;BME280;5284;50.446;7.904;2023-09-07T23:27:17;98720.94;;;16.03;100.00
10474;BME280;5284;50.446;7.904;2023-09-07T23:32:20;98722.13;;;16.01;100.00
10474;BME280;5284;50.446;7.904;2023-09-07T23:37:26;98725.59;;;15.93;100.00
10474;BME280;5284;50.446;7.904;2023-09-07T23:42:31;98722.69;;;15.87;100.00
10474;BME280;5284;50.446;7.904;2023-09-07T23:47:35;98721.47;;;15.81;100.00
10474;BME280;5284;50.446;7.904;2023-09-07T23:52:39;98720.28;;;15.76;100.00
10474;BME280;5284;50.446;7.904;2023-09-07T23:57:45;98719.38;;;15.67;100.00
